createdAt,value
2019-05-01T00:00:50.867Z,9.33
2019-05-01T00:01:50.843Z,9.19
2019-05-01T00:02:50.829Z,9.15
2019-05-01T00:03:50.823Z,9.29
2019-05-01T00:04:50.810Z,9.31
2019-05-01T00:05:50.815Z,9.27
2019-05-01T00:06:50.785Z,9.22
2019-05-01T00:07:50.779Z,9.21
2019-05-01T00:08:50.762Z,9.29
2019-05-01T00:09:50.759Z,9.33
2019-05-01T00:10:50.754Z,9.37
2019-05-01T00:11:50.733Z,9.34
2019-05-01T00:12:50.721Z,9.36
2019-05-01T00:13:50.711Z,9.36
2019-05-01T00:14:50.694Z,9.33
2019-05-01T00:15:50.703Z,9.31
2019-05-01T00:16:50.673Z,9.42
2019-05-01T00:17:50.670Z,9.40
2019-05-01T00:18:50.650Z,9.36
2019-05-01T00:19:50.644Z,9.40
2019-05-01T00:20:50.642Z,9.29
2019-05-01T00:21:50.622Z,9.36
2019-05-01T00:22:50.607Z,9.33
2019-05-01T00:23:50.602Z,9.27
2019-05-01T00:24:50.587Z,9.30
2019-05-01T00:25:50.591Z,9.37
2019-05-01T00:26:50.562Z,9.36
2019-05-01T00:27:50.560Z,9.37
2019-05-01T00:28:50.539Z,9.39
2019-05-01T00:29:50.538Z,9.37
2019-05-01T00:30:50.536Z,9.40
2019-05-01T00:31:50.510Z,9.29
2019-05-01T00:32:50.494Z,9.29
2019-05-01T00:33:50.488Z,9.40
2019-05-01T00:34:50.481Z,9.39
2019-05-01T00:35:50.484Z,9.42
2019-05-01T00:36:50.450Z,9.33
2019-05-01T00:37:50.444Z,9.40
2019-05-01T00:38:50.429Z,9.37
2019-05-01T00:39:50.424Z,9.30
2019-05-01T00:40:50.423Z,9.34
2019-05-01T00:41:50.399Z,9.40
2019-05-01T00:42:50.384Z,9.29
2019-05-01T00:43:50.378Z,9.33
2019-05-01T00:44:50.361Z,9.22
2019-05-01T00:45:50.369Z,9.31
2019-05-01T00:46:50.344Z,9.30
2019-05-01T00:47:50.336Z,9.33
2019-05-01T00:48:50.316Z,9.27
2019-05-01T00:49:50.309Z,9.26
2019-05-01T00:50:50.318Z,9.36
2019-05-01T00:51:50.291Z,9.27
2019-05-01T00:52:50.286Z,9.19
2019-05-01T00:53:50.270Z,9.22
2019-05-01T00:54:50.249Z,9.24
2019-05-01T00:55:50.269Z,9.24
2019-05-01T00:56:50.229Z,9.16
2019-05-01T00:57:50.225Z,9.24
2019-05-01T00:58:50.208Z,9.15
2019-05-01T00:59:50.199Z,9.12
2019-05-01T01:00:50.200Z,9.16
2019-05-01T01:01:50.177Z,9.18
2019-05-01T01:02:50.161Z,9.18
2019-05-01T01:03:50.155Z,9.09
2019-05-01T01:04:50.142Z,9.11
2019-05-01T01:05:50.145Z,9.09
2019-05-01T01:06:50.117Z,9.03
2019-05-01T01:07:50.116Z,9.12
2019-05-01T01:08:50.096Z,9.12
2019-05-01T01:09:50.092Z,9.09
2019-05-01T01:10:50.086Z,9.13
2019-05-01T01:11:50.067Z,9.11
2019-05-01T01:12:50.050Z,9.12
2019-05-01T01:13:50.044Z,9.12
2019-05-01T01:14:50.028Z,9.11
2019-05-01T01:15:50.034Z,9.19
2019-05-01T01:16:50.006Z,9.13
2019-05-01T01:17:50.001Z,9.11
2019-05-01T01:18:49.983Z,8.99
2019-05-01T01:19:49.977Z,8.97
2019-05-01T01:20:49.963Z,9.02
2019-05-01T01:21:49.970Z,8.99
2019-05-01T01:22:49.938Z,9.02
2019-05-01T01:23:49.935Z,8.97
2019-05-01T01:24:49.925Z,9.02
2019-05-01T01:25:49.910Z,9.08
2019-05-01T01:26:49.912Z,9.05
2019-05-01T01:27:49.930Z,8.97
2019-05-01T01:28:49.873Z,8.99
2019-05-01T01:29:49.871Z,9.11
2019-05-01T01:30:56.211Z,9.11
2019-05-01T01:31:50.859Z,9.12
2019-05-01T01:32:49.829Z,9.09
2019-05-01T01:33:49.821Z,9.12
2019-05-01T01:34:49.806Z,9.11
2019-05-01T01:35:49.799Z,9.11
2019-05-01T01:36:49.796Z,9.09
2019-05-01T01:37:49.775Z,9.03
2019-05-01T01:38:49.762Z,9.12
2019-05-01T01:39:49.762Z,9.00
2019-05-01T01:40:49.738Z,9.12
2019-05-01T01:41:49.744Z,9.09
2019-05-01T01:42:49.715Z,9.09
2019-05-01T01:43:49.711Z,9.09
2019-05-01T01:44:49.692Z,9.05
2019-05-01T01:45:49.686Z,8.99
2019-05-01T01:46:49.685Z,9.03
2019-05-01T01:47:49.664Z,9.00
2019-05-01T01:48:49.652Z,8.96
2019-05-01T01:49:49.648Z,8.90
2019-05-01T01:50:49.633Z,8.90
2019-05-01T01:51:49.635Z,8.96
2019-05-01T01:52:49.606Z,8.93
2019-05-01T01:53:49.597Z,8.96
2019-05-01T01:54:49.584Z,8.84
2019-05-01T01:55:49.575Z,8.79
2019-05-01T01:56:49.576Z,8.81
2019-05-01T01:57:49.553Z,8.84
2019-05-01T01:58:49.537Z,8.84
2019-05-01T01:59:49.533Z,8.81
2019-05-01T02:00:49.526Z,8.77
2019-05-01T02:01:49.533Z,8.82
2019-05-01T02:02:49.493Z,8.82
2019-05-01T02:03:49.486Z,8.77
2019-05-01T02:04:49.476Z,8.81
2019-05-01T02:05:49.467Z,8.75
2019-05-01T02:06:49.463Z,8.79
2019-05-01T02:07:49.442Z,8.89
2019-05-01T02:08:56.366Z,8.87
2019-05-01T02:09:50.422Z,8.82
2019-05-01T02:10:49.406Z,8.90
2019-05-01T02:11:49.411Z,8.84
2019-05-01T02:12:49.388Z,8.89
2019-05-01T02:13:49.374Z,8.86
2019-05-01T02:14:49.359Z,8.82
2019-05-01T02:15:49.354Z,8.89
2019-05-01T02:16:49.351Z,8.95
2019-05-01T02:17:49.331Z,8.84
2019-05-01T02:18:49.316Z,8.81
2019-05-01T02:19:49.311Z,8.86
2019-05-01T02:20:49.292Z,8.92
2019-05-01T02:21:49.301Z,8.82
2019-05-01T02:22:49.273Z,8.79
2019-05-01T02:23:49.267Z,8.81
2019-05-01T02:24:49.249Z,8.77
2019-05-01T02:25:49.242Z,8.86
2019-05-01T02:26:49.240Z,8.87
2019-05-01T02:27:49.218Z,8.72
2019-05-01T02:28:49.203Z,8.66
2019-05-01T02:29:49.204Z,8.63
2019-05-01T02:30:49.182Z,8.59
2019-05-01T02:31:49.194Z,8.66
2019-05-01T02:32:49.164Z,8.61
2019-05-01T02:33:49.158Z,8.60
2019-05-01T02:34:49.140Z,8.61
2019-05-01T02:35:49.132Z,8.54
2019-05-01T02:36:49.132Z,8.52
2019-05-01T02:37:49.111Z,8.59
2019-05-01T02:38:49.097Z,8.52
2019-05-01T02:39:49.087Z,8.63
2019-05-01T02:40:49.076Z,8.54
2019-05-01T02:41:49.088Z,8.50
2019-05-01T02:42:49.049Z,8.59
2019-05-01T02:43:49.042Z,8.52
2019-05-01T02:44:49.029Z,8.46
2019-05-01T02:45:49.025Z,8.49
2019-05-01T02:46:49.025Z,8.60
2019-05-01T02:47:49.013Z,8.41
2019-05-01T02:48:52.527Z,8.45
2019-05-01T02:49:48.975Z,8.46
2019-05-01T02:50:48.960Z,8.45
2019-05-01T02:51:48.959Z,8.52
2019-05-01T02:52:48.957Z,8.54
2019-05-01T02:53:48.931Z,8.57
2019-05-01T02:54:48.928Z,8.49
2019-05-01T02:55:48.912Z,8.54
2019-05-01T02:56:48.896Z,8.63
2019-05-01T02:57:48.908Z,8.59
2019-05-01T02:58:48.874Z,8.59
2019-05-01T02:59:48.865Z,8.60
2019-05-01T03:00:48.850Z,8.64
2019-05-01T03:01:48.849Z,8.57
2019-05-01T03:02:48.841Z,8.59
2019-05-01T03:03:48.825Z,8.46
2019-05-01T03:04:48.805Z,8.57
2019-05-01T03:05:48.805Z,8.56
2019-05-01T03:06:48.783Z,8.52
2019-05-01T03:07:48.798Z,8.60
2019-05-01T03:08:48.761Z,8.52
2019-05-01T03:09:48.785Z,8.54
2019-05-01T03:10:48.741Z,8.60
2019-05-01T03:11:48.732Z,8.63
2019-05-01T03:12:48.735Z,8.60
2019-05-01T03:13:48.713Z,8.59
2019-05-01T03:14:48.699Z,8.68
2019-05-01T03:15:48.689Z,8.63
2019-05-01T03:16:48.708Z,8.59
2019-05-01T03:17:48.683Z,8.72
2019-05-01T03:18:48.651Z,8.68
2019-05-01T03:19:48.644Z,8.68
2019-05-01T03:20:48.636Z,8.68
2019-05-01T03:21:48.625Z,8.72
2019-05-01T03:22:48.626Z,8.74
2019-05-01T03:23:48.601Z,8.72
2019-05-01T03:24:48.589Z,8.71
2019-05-01T03:25:48.581Z,8.72
2019-05-01T03:26:48.568Z,8.64
2019-05-01T03:27:48.574Z,8.69
2019-05-01T03:28:48.542Z,8.68
2019-05-01T03:29:48.532Z,8.75
2019-05-01T03:30:48.519Z,8.68
2019-05-01T03:32:14.105Z,8.72
2019-05-01T03:32:49.511Z,8.60
2019-05-01T03:33:48.511Z,8.69
2019-05-01T03:34:52.568Z,8.66
2019-05-01T03:35:48.468Z,8.72
2019-05-01T03:36:48.452Z,8.71
2019-05-01T03:37:48.458Z,8.69
2019-05-01T03:38:48.430Z,8.64
2019-05-01T03:39:48.425Z,8.71
2019-05-01T03:40:48.412Z,8.82
2019-05-01T03:41:48.414Z,8.74
2019-05-01T03:42:48.407Z,8.78
2019-05-01T03:43:48.385Z,8.74
2019-05-01T03:44:48.368Z,8.69
2019-05-01T03:45:48.368Z,8.71
2019-05-01T03:46:48.342Z,8.77
2019-05-01T03:47:48.352Z,8.74
2019-05-01T03:48:48.320Z,8.69
2019-05-01T03:49:48.318Z,8.71
2019-05-01T03:50:48.297Z,8.71
2019-05-01T03:51:48.296Z,8.72
2019-05-01T03:52:48.293Z,8.72
2019-05-01T03:53:48.268Z,8.71
2019-05-01T03:54:48.260Z,8.71
2019-05-01T03:55:48.247Z,8.69
2019-05-01T03:56:48.232Z,8.72
2019-05-01T03:57:48.244Z,8.72
2019-05-01T03:58:48.213Z,8.61
2019-05-01T03:59:48.201Z,8.61
2019-05-01T04:00:48.193Z,8.72
2019-05-01T04:01:48.182Z,8.69
2019-05-01T04:02:48.179Z,8.82
2019-05-01T04:03:48.159Z,8.75
2019-05-01T04:04:48.147Z,8.77
2019-05-01T04:05:48.144Z,8.78
2019-05-01T04:06:48.125Z,8.66
2019-05-01T04:07:48.136Z,8.63
2019-05-01T04:08:48.112Z,8.71
2019-05-01T04:09:48.101Z,8.71
2019-05-01T04:10:48.078Z,8.68
2019-05-01T04:11:48.074Z,8.63
2019-05-01T04:12:48.070Z,8.69
2019-05-01T04:13:48.062Z,8.77
2019-05-01T04:14:48.033Z,8.71
2019-05-01T04:15:48.025Z,8.79
2019-05-01T04:16:48.014Z,8.75
2019-05-01T04:17:48.005Z,8.82
2019-05-01T04:18:48.009Z,8.81
2019-05-01T04:19:47.981Z,8.82
2019-05-01T04:20:47.967Z,8.74
2019-05-01T04:21:47.964Z,8.82
2019-05-01T04:22:47.944Z,8.84
2019-05-01T04:23:47.951Z,8.78
2019-05-01T04:24:47.923Z,8.86
2019-05-01T04:25:47.918Z,8.84
2019-05-01T04:26:47.901Z,8.78
2019-05-01T04:27:47.892Z,8.78
2019-05-01T04:28:47.893Z,8.77
2019-05-01T04:29:47.884Z,8.78
2019-05-01T04:30:47.855Z,8.84
2019-05-01T04:31:47.854Z,8.87
2019-05-01T04:32:52.646Z,8.95
2019-05-01T04:33:48.844Z,8.84
2019-05-01T04:34:47.816Z,8.82
2019-05-01T04:35:47.806Z,8.87
2019-05-01T04:36:47.791Z,8.86
2019-05-01T04:37:47.786Z,8.96
2019-05-01T04:38:47.780Z,8.95
2019-05-01T04:39:47.761Z,8.96
2019-05-01T04:40:47.755Z,8.96
2019-05-01T04:41:47.739Z,8.95
2019-05-01T04:42:47.727Z,8.90
2019-05-01T04:43:47.729Z,8.97
2019-05-01T04:44:47.704Z,8.97
2019-05-01T04:45:47.696Z,8.97
2019-05-01T04:46:47.686Z,8.96
2019-05-01T04:47:47.674Z,9.05
2019-05-01T04:48:47.670Z,9.05
2019-05-01T04:49:47.652Z,9.02
2019-05-01T04:50:47.635Z,9.15
2019-05-01T04:51:47.641Z,9.12
2019-05-01T04:52:47.611Z,9.13
2019-05-01T04:53:47.619Z,9.11
2019-05-01T04:54:47.591Z,9.12
2019-05-01T04:55:47.583Z,9.15
2019-05-01T04:56:47.568Z,9.13
2019-05-01T04:57:47.564Z,9.18
2019-05-01T04:58:47.567Z,9.13
2019-05-01T04:59:47.539Z,9.12
2019-05-01T05:00:47.522Z,9.13
2019-05-01T05:01:47.518Z,9.15
2019-05-01T05:02:47.501Z,9.15
2019-05-01T05:03:47.508Z,9.30
2019-05-01T05:04:47.478Z,9.30
2019-05-01T05:05:47.472Z,9.40
2019-05-01T05:06:47.455Z,9.40
2019-05-01T05:07:47.451Z,9.40
2019-05-01T05:08:47.477Z,9.39
2019-05-01T05:09:47.430Z,9.42
2019-05-01T05:10:47.411Z,9.49
2019-05-01T05:11:47.404Z,9.45
2019-05-01T05:12:47.392Z,9.45
2019-05-01T05:13:47.400Z,9.48
2019-05-01T05:14:47.370Z,9.40
2019-05-01T05:15:47.375Z,9.39
2019-05-01T05:16:47.344Z,9.47
2019-05-01T05:17:47.345Z,9.48
2019-05-01T05:18:47.465Z,9.42
2019-05-01T05:19:47.348Z,9.45
2019-05-01T05:20:47.340Z,9.49
2019-05-01T05:21:47.327Z,9.48
2019-05-01T05:22:47.321Z,9.54
2019-05-01T05:23:47.323Z,9.52
2019-05-01T05:24:47.256Z,9.59
2019-05-01T05:25:47.252Z,9.59
2019-05-01T05:26:47.233Z,9.66
2019-05-01T05:27:47.227Z,9.63
2019-05-01T05:28:47.226Z,9.67
2019-05-01T05:29:47.204Z,9.69
2019-05-01T05:30:47.188Z,9.66
2019-05-01T05:31:47.189Z,9.66
2019-05-01T05:32:47.167Z,9.63
2019-05-01T05:33:47.173Z,9.67
2019-05-01T05:34:47.143Z,9.77
2019-05-01T05:35:47.137Z,9.91
2019-05-01T05:36:47.123Z,9.87
2019-05-01T05:37:47.118Z,9.95
2019-05-01T05:38:47.121Z,9.97
2019-05-01T05:39:47.092Z,9.99
2019-05-01T05:40:47.077Z,10.05
2019-05-01T05:41:47.075Z,10.06
2019-05-01T05:42:47.058Z,10.00
2019-05-01T05:43:47.313Z,10.06
2019-05-01T05:44:47.033Z,10.00
2019-05-01T05:45:47.025Z,10.06
2019-05-01T05:46:47.011Z,10.06
2019-05-01T05:47:47.005Z,10.05
2019-05-01T05:48:46.992Z,10.05
2019-05-01T05:49:47.002Z,10.06
2019-05-01T05:50:46.965Z,10.09
2019-05-01T05:51:46.958Z,10.12
2019-05-01T05:52:46.943Z,10.12
2019-05-01T05:53:46.936Z,10.13
2019-05-01T05:54:46.935Z,10.12
2019-05-01T05:55:46.913Z,10.10
2019-05-01T05:56:46.898Z,10.17
2019-05-01T05:57:46.891Z,10.24
2019-05-01T05:58:46.881Z,10.28
2019-05-01T05:59:46.892Z,10.23
2019-05-01T06:00:46.858Z,10.18
2019-05-01T06:01:46.847Z,10.20
2019-05-01T06:02:46.831Z,10.20
2019-05-01T06:03:46.828Z,10.21
2019-05-01T06:04:46.821Z,10.25
2019-05-01T06:05:46.810Z,10.20
2019-05-01T06:06:46.788Z,10.15
2019-05-01T06:07:46.779Z,10.21
2019-05-01T06:08:46.767Z,10.31
2019-05-01T06:09:48.564Z,10.36
2019-05-01T06:10:46.743Z,10.31
2019-05-01T06:11:46.735Z,10.39
2019-05-01T06:12:48.569Z,10.45
2019-05-01T06:13:46.713Z,10.53
2019-05-01T06:14:46.714Z,10.46
2019-05-01T06:15:49.068Z,10.55
2019-05-01T06:16:51.496Z,10.48
2019-05-01T06:17:47.670Z,10.48
2019-05-01T06:18:46.655Z,10.49
2019-05-01T06:19:49.712Z,10.43
2019-05-01T06:20:46.634Z,10.38
2019-05-01T06:21:46.627Z,10.45
2019-05-01T06:22:46.614Z,10.55
2019-05-01T06:23:46.611Z,10.58
2019-05-01T06:24:46.605Z,10.57
2019-05-01T06:25:46.587Z,10.67
2019-05-01T06:26:46.569Z,10.69
2019-05-01T06:27:49.323Z,10.68
2019-05-01T06:28:46.546Z,10.71
2019-05-01T06:29:46.554Z,10.79
2019-05-01T06:30:47.145Z,10.83
2019-05-01T06:31:46.518Z,10.80
2019-05-01T06:32:46.504Z,10.77
2019-05-01T06:33:48.670Z,10.80
2019-05-01T06:34:47.493Z,10.83
2019-05-01T06:35:46.474Z,10.87
2019-05-01T06:36:49.713Z,10.89
2019-05-01T06:37:46.457Z,10.95
2019-05-01T06:38:46.437Z,11.05
2019-05-01T06:39:48.153Z,11.00
2019-05-01T06:40:46.415Z,11.08
2019-05-01T06:41:46.408Z,11.08
2019-05-01T06:42:50.107Z,11.19
2019-05-01T06:43:46.384Z,11.30
2019-05-01T06:44:46.382Z,11.40
2019-05-01T06:45:46.863Z,11.40
2019-05-01T06:46:46.345Z,11.16
2019-05-01T06:47:46.337Z,11.13
2019-05-01T06:48:48.824Z,11.18
2019-05-01T06:49:47.368Z,11.23
2019-05-01T06:50:46.298Z,11.22
2019-05-01T06:51:47.941Z,11.31
2019-05-01T06:52:47.274Z,11.31
2019-05-01T06:53:46.270Z,11.16
2019-05-01T06:54:47.737Z,11.27
2019-05-01T06:55:47.244Z,11.33
2019-05-01T06:56:46.233Z,11.26
2019-05-01T06:57:46.227Z,11.40
2019-05-01T06:58:46.206Z,11.45
2019-05-01T06:59:46.214Z,11.49
2019-05-01T07:00:46.194Z,11.59
2019-05-01T07:01:46.189Z,11.55
2019-05-01T07:02:46.160Z,11.76
2019-05-01T07:04:02.884Z,11.83
2019-05-01T07:04:47.166Z,12.07
2019-05-01T07:05:49.000Z,12.15
2019-05-01T07:06:47.113Z,12.26
2019-05-01T07:07:48.232Z,12.05
2019-05-01T07:08:47.093Z,11.96
2019-05-01T07:09:49.367Z,12.02
2019-05-01T07:10:46.086Z,12.02
2019-05-01T07:11:47.481Z,12.21
2019-05-01T07:12:47.049Z,12.15
2019-05-01T07:13:46.047Z,12.21
2019-05-01T07:14:47.039Z,12.28
2019-05-01T07:15:46.032Z,11.93
2019-05-01T07:16:46.004Z,12.12
2019-05-01T07:17:47.924Z,12.26
2019-05-01T07:18:45.982Z,12.28
2019-05-01T07:19:45.976Z,12.35
2019-05-01T07:20:47.391Z,12.51
2019-05-01T07:21:46.952Z,12.50
2019-05-01T07:22:45.938Z,12.63
2019-05-01T07:23:47.782Z,12.69
2019-05-01T07:24:49.059Z,12.81
2019-05-01T07:25:45.924Z,13.09
2019-05-01T07:26:48.138Z,13.50
2019-05-01T07:27:45.886Z,14.03
2019-05-01T07:28:45.872Z,14.59
2019-05-01T07:29:46.656Z,15.17
2019-05-01T07:30:49.874Z,15.60
2019-05-01T07:31:46.834Z,15.30
2019-05-01T07:32:45.832Z,15.08
2019-05-01T07:33:47.153Z,15.30
2019-05-01T07:34:48.930Z,15.84
2019-05-01T07:35:45.806Z,15.91
2019-05-01T07:36:50.130Z,15.78
2019-05-01T07:37:46.773Z,16.17
2019-05-01T07:38:45.764Z,16.40
2019-05-01T07:39:49.800Z,16.55
2019-05-01T07:40:46.754Z,16.54
2019-05-01T07:41:45.725Z,16.57
2019-05-01T07:42:48.220Z,16.12
2019-05-01T07:43:45.702Z,15.70
2019-05-01T07:44:45.695Z,15.70
2019-05-01T07:45:45.694Z,15.99
2019-05-01T07:46:48.960Z,16.57
2019-05-01T07:47:46.659Z,16.65
2019-05-01T07:48:45.656Z,16.65
2019-05-01T07:49:47.859Z,16.86
2019-05-01T07:50:46.641Z,16.92
2019-05-01T07:51:45.613Z,16.18
2019-05-01T07:52:47.728Z,15.26
2019-05-01T07:53:46.589Z,14.89
2019-05-01T07:54:47.113Z,14.67
2019-05-01T07:55:48.567Z,14.81
2019-05-01T07:56:45.560Z,14.86
2019-05-01T07:57:45.544Z,15.41
2019-05-01T07:58:47.508Z,16.22
2019-05-01T07:59:46.519Z,16.21
2019-05-01T08:00:45.531Z,15.94
2019-05-01T08:01:45.499Z,16.34
2019-05-01T08:02:45.492Z,16.87
2019-05-01T08:03:45.476Z,17.05
2019-05-01T08:04:45.476Z,17.35
2019-05-01T08:05:46.754Z,16.41
2019-05-01T08:06:45.446Z,16.28
2019-05-01T08:07:45.431Z,16.65
2019-05-01T08:08:45.425Z,15.37
2019-05-01T08:09:45.851Z,15.08
2019-05-01T08:10:45.415Z,15.11
2019-05-01T08:11:45.582Z,15.30
2019-05-01T08:12:45.398Z,16.08
2019-05-01T08:13:45.364Z,16.69
2019-05-01T08:14:47.726Z,17.01
2019-05-01T08:15:46.358Z,17.37
2019-05-01T08:16:45.334Z,17.50
2019-05-01T08:17:48.852Z,17.19
2019-05-01T08:18:46.311Z,17.16
2019-05-01T08:19:45.299Z,17.50
2019-05-01T08:20:45.775Z,17.90
2019-05-01T08:21:45.279Z,18.19
2019-05-01T08:22:45.276Z,18.26
2019-05-01T08:23:47.166Z,18.73
2019-05-01T08:24:45.246Z,18.73
2019-05-01T08:25:45.258Z,19.01
2019-05-01T08:26:45.940Z,18.55
2019-05-01T08:27:45.285Z,17.52
2019-05-01T08:28:45.203Z,17.53
2019-05-01T08:29:45.188Z,18.00
2019-05-01T08:30:48.036Z,18.24
2019-05-01T08:31:46.182Z,17.72
2019-05-01T08:32:45.161Z,17.78
2019-05-01T08:33:49.825Z,18.43
2019-05-01T08:34:49.045Z,18.31
2019-05-01T08:35:45.120Z,18.70
2019-05-01T08:36:47.338Z,18.86
2019-05-01T08:37:45.108Z,18.98
2019-05-01T08:38:45.093Z,18.42
2019-05-01T08:39:45.954Z,18.42
2019-05-01T08:40:45.073Z,18.76
2019-05-01T08:41:45.068Z,19.16
2019-05-01T08:42:45.048Z,19.44
2019-05-01T08:43:48.886Z,19.42
2019-05-01T08:44:46.019Z,19.49
2019-05-01T08:45:45.024Z,18.97
2019-05-01T08:46:46.781Z,19.38
2019-05-01T08:47:45.996Z,19.81
2019-05-01T08:48:44.977Z,19.52
2019-05-01T08:49:49.515Z,17.41
2019-05-01T08:50:45.952Z,16.92
2019-05-01T08:51:44.964Z,17.17
2019-05-01T08:52:47.448Z,17.35
2019-05-01T08:53:44.926Z,17.47
2019-05-01T08:54:44.914Z,17.13
2019-05-01T08:55:46.920Z,17.01
2019-05-01T08:56:44.910Z,18.03
2019-05-01T08:57:44.881Z,18.16
2019-05-01T08:58:49.318Z,17.98
2019-05-01T08:59:45.859Z,17.84
2019-05-01T09:00:44.848Z,18.19
2019-05-01T09:01:45.863Z,18.53
2019-05-01T09:02:45.818Z,18.53
2019-05-01T09:03:44.816Z,17.95
2019-05-01T09:04:44.799Z,18.67
2019-05-01T09:05:44.794Z,19.23
2019-05-01T09:06:45.257Z,18.83
2019-05-01T09:07:44.903Z,18.52
2019-05-01T09:08:44.755Z,18.49
2019-05-01T09:09:45.862Z,19.09
2019-05-01T09:10:44.731Z,19.63
2019-05-01T09:11:44.740Z,19.67
2019-05-01T09:12:46.800Z,19.87
2019-05-01T09:13:44.703Z,19.29
2019-05-01T09:14:44.686Z,19.71
2019-05-01T09:15:48.266Z,20.14
2019-05-01T09:16:44.679Z,19.56
2019-05-01T09:17:44.659Z,19.45
2019-05-01T09:18:44.645Z,19.23
2019-05-01T09:19:44.642Z,18.78
2019-05-01T09:20:44.622Z,18.85
2019-05-01T09:21:44.628Z,19.35
2019-05-01T09:22:44.598Z,19.52
2019-05-01T09:23:46.278Z,19.99
2019-05-01T09:24:45.575Z,20.78
2019-05-01T09:25:44.576Z,20.46
2019-05-01T09:26:45.265Z,20.90
2019-05-01T09:27:45.546Z,20.52
2019-05-01T09:28:44.530Z,19.90
2019-05-01T09:29:46.952Z,20.52
2019-05-01T09:30:45.507Z,21.15
2019-05-01T09:31:44.519Z,21.45
2019-05-01T09:32:45.901Z,20.80
2019-05-01T09:33:45.480Z,19.81
2019-05-01T09:34:44.468Z,19.01
2019-05-01T09:35:45.220Z,19.32
2019-05-01T09:36:44.463Z,19.93
2019-05-01T09:37:44.435Z,20.50
2019-05-01T09:38:44.420Z,21.33
2019-05-01T09:39:47.170Z,21.66
2019-05-01T09:40:44.401Z,21.11
2019-05-01T09:41:47.584Z,20.17
2019-05-01T09:42:44.376Z,19.84
2019-05-01T09:43:44.370Z,19.70
2019-05-01T09:44:44.357Z,20.15
2019-05-01T09:45:44.348Z,20.75
2019-05-01T09:46:44.372Z,21.29
2019-05-01T09:47:44.326Z,21.70
2019-05-01T09:48:44.309Z,21.45
2019-05-01T09:49:44.304Z,21.83
2019-05-01T09:50:44.288Z,21.50
2019-05-01T09:51:47.652Z,21.11
2019-05-01T09:52:44.288Z,20.93
2019-05-01T09:53:44.269Z,20.26
2019-05-01T09:54:46.708Z,19.71
2019-05-01T09:55:44.240Z,20.10
2019-05-01T09:56:44.232Z,20.21
2019-05-01T09:57:44.234Z,20.29
2019-05-01T09:58:44.203Z,20.26
2019-05-01T09:59:44.201Z,20.78
2019-05-01T10:00:44.180Z,20.83
2019-05-01T10:01:44.175Z,21.13
2019-05-01T10:02:44.172Z,21.29
2019-05-01T10:03:44.990Z,21.54
2019-05-01T10:04:44.142Z,21.58
2019-05-01T10:05:44.299Z,22.25
2019-05-01T10:06:47.744Z,22.38
2019-05-01T10:07:45.122Z,22.14
2019-05-01T10:08:44.093Z,22.62
2019-05-01T10:09:47.217Z,22.34
2019-05-01T10:10:45.069Z,21.97
2019-05-01T10:11:44.078Z,21.63
2019-05-01T10:12:47.025Z,21.74
2019-05-01T10:13:44.042Z,21.72
2019-05-01T10:14:44.029Z,20.75
2019-05-01T10:15:44.017Z,21.14
2019-05-01T10:16:44.013Z,21.62
2019-05-01T10:17:44.012Z,21.66
2019-05-01T10:18:43.978Z,21.50
2019-05-01T10:19:43.972Z,21.62
2019-05-01T10:20:43.956Z,22.06
2019-05-01T10:21:43.960Z,21.81
2019-05-01T10:22:43.951Z,22.10
2019-05-01T10:23:47.026Z,21.84
2019-05-01T10:24:44.915Z,22.07
2019-05-01T10:25:47.934Z,22.58
2019-05-01T10:26:44.907Z,22.86
2019-05-01T10:27:43.896Z,23.13
2019-05-01T10:28:45.213Z,23.04
2019-05-01T10:29:44.857Z,23.17
2019-05-01T10:30:43.925Z,22.63
2019-05-01T10:31:46.623Z,22.84
2019-05-01T10:32:43.835Z,22.81
2019-05-01T10:33:43.816Z,22.99
2019-05-01T10:34:44.616Z,23.20
2019-05-01T10:35:43.795Z,23.34
2019-05-01T10:36:43.781Z,23.32
2019-05-01T10:37:43.788Z,22.70
2019-05-01T10:38:44.963Z,22.41
2019-05-01T10:39:43.753Z,22.43
2019-05-01T10:40:43.735Z,22.21
2019-05-01T10:41:46.320Z,22.25
2019-05-01T10:42:43.748Z,21.83
2019-05-01T10:43:43.708Z,21.74
2019-05-01T10:44:43.692Z,21.83
2019-05-01T10:45:43.693Z,21.83
2019-05-01T10:46:43.671Z,22.18
2019-05-01T10:47:43.665Z,22.51
2019-05-01T10:48:43.670Z,22.46
2019-05-01T10:49:43.643Z,22.63
2019-05-01T10:50:43.630Z,22.74
2019-05-01T10:51:43.622Z,22.25
2019-05-01T10:52:43.605Z,22.38
2019-05-01T10:53:43.616Z,22.81
2019-05-01T10:54:46.433Z,23.20
2019-05-01T10:55:43.578Z,23.06
2019-05-01T10:56:43.562Z,22.77
2019-05-01T10:57:43.561Z,23.01
2019-05-01T10:58:43.556Z,23.29
2019-05-01T10:59:43.543Z,23.16
2019-05-01T11:00:43.521Z,23.13
2019-05-01T11:01:43.513Z,23.47
2019-05-01T11:02:43.504Z,23.16
2019-05-01T11:03:43.510Z,23.32
2019-05-01T11:04:43.478Z,23.51
2019-05-01T11:05:55.278Z,23.76
2019-05-01T11:06:44.458Z,24.19
2019-05-01T11:07:43.452Z,24.53
2019-05-01T11:08:43.450Z,24.63
2019-05-01T11:09:43.429Z,24.61
2019-05-01T11:10:43.412Z,24.59
2019-05-01T11:11:43.407Z,24.38
2019-05-01T11:12:43.395Z,24.36
2019-05-01T11:13:43.398Z,23.33
2019-05-01T11:14:43.370Z,23.13
2019-05-01T11:15:43.389Z,23.34
2019-05-01T11:16:43.348Z,23.54
2019-05-01T11:17:43.341Z,22.18
2019-05-01T11:18:43.343Z,22.36
2019-05-01T11:19:43.325Z,22.77
2019-05-01T11:20:43.309Z,23.44
2019-05-01T11:21:43.299Z,23.89
2019-05-01T11:22:43.285Z,24.38
2019-05-01T11:23:43.300Z,24.24
2019-05-01T11:24:43.263Z,23.40
2019-05-01T11:25:44.717Z,23.11
2019-05-01T11:26:43.241Z,23.20
2019-05-01T11:27:43.235Z,23.14
2019-05-01T11:28:43.247Z,22.16
2019-05-01T11:29:43.213Z,21.22
2019-05-01T11:30:43.198Z,21.45
2019-05-01T11:31:43.197Z,21.99
2019-05-01T11:32:43.177Z,22.76
2019-05-01T11:33:43.170Z,23.11
2019-05-01T11:34:43.170Z,22.96
2019-05-01T11:35:43.152Z,23.40
2019-05-01T11:36:43.135Z,23.88
2019-05-01T11:37:43.131Z,23.99
2019-05-01T11:38:43.115Z,24.19
2019-05-01T11:39:43.119Z,24.55
2019-05-01T11:40:43.090Z,23.82
2019-05-01T11:41:43.085Z,24.03
2019-05-01T11:42:43.072Z,24.22
2019-05-01T11:43:43.069Z,24.06
2019-05-01T11:44:43.061Z,24.22
2019-05-01T11:45:43.041Z,24.36
2019-05-01T11:46:43.025Z,24.28
2019-05-01T11:47:43.018Z,24.28
2019-05-01T11:48:44.640Z,24.16
2019-05-01T11:49:43.012Z,23.17
2019-05-01T11:50:42.982Z,23.48
2019-05-01T11:51:42.975Z,23.42
2019-05-01T11:52:42.960Z,22.14
2019-05-01T11:53:42.953Z,22.06
2019-05-01T11:54:43.004Z,22.63
2019-05-01T11:55:42.935Z,23.26
2019-05-01T11:56:42.917Z,23.64
2019-05-01T11:57:42.910Z,24.10
2019-05-01T11:58:42.897Z,24.66
2019-05-01T11:59:42.903Z,24.99
2019-05-01T12:00:42.875Z,24.63
2019-05-01T12:01:42.867Z,24.28
2019-05-01T12:02:42.851Z,24.11
2019-05-01T12:03:42.844Z,24.09
2019-05-01T12:04:42.844Z,24.13
2019-05-01T12:05:42.826Z,23.92
2019-05-01T12:06:42.810Z,23.86
2019-05-01T12:07:42.801Z,23.86
2019-05-01T12:08:42.785Z,23.18
2019-05-01T12:09:42.794Z,23.95
2019-05-01T12:10:42.765Z,24.41
2019-05-01T12:11:42.761Z,24.66
2019-05-01T12:12:42.742Z,24.97
2019-05-01T12:13:44.002Z,25.03
2019-05-01T12:14:42.735Z,25.18
2019-05-01T12:15:42.714Z,24.53
2019-05-01T12:16:42.699Z,24.00
2019-05-01T12:17:42.702Z,24.31
2019-05-01T12:18:42.679Z,24.53
2019-05-01T12:19:42.685Z,24.69
2019-05-01T12:20:42.660Z,24.53
2019-05-01T12:21:42.649Z,24.26
2019-05-01T12:22:42.668Z,24.53
2019-05-01T12:23:42.628Z,24.69
2019-05-01T12:24:42.630Z,24.68
2019-05-01T12:25:42.610Z,24.48
2019-05-01T12:26:42.591Z,24.34
2019-05-01T12:27:42.587Z,24.19
2019-05-01T12:28:42.569Z,24.21
2019-05-01T12:29:42.578Z,23.86
2019-05-01T12:30:42.549Z,23.84
2019-05-01T12:31:42.542Z,24.07
2019-05-01T12:32:42.526Z,23.85
2019-05-01T12:33:42.520Z,24.18
2019-05-01T12:34:42.538Z,24.06
2019-05-01T12:35:42.506Z,24.40
2019-05-01T12:36:42.483Z,24.79
2019-05-01T12:37:42.476Z,25.00
2019-05-01T12:38:42.463Z,25.00
2019-05-01T12:39:42.457Z,24.40
2019-05-01T12:40:42.456Z,24.21
2019-05-01T12:41:42.439Z,23.88
2019-05-01T12:42:42.418Z,24.11
2019-05-01T12:43:42.413Z,23.33
2019-05-01T12:44:42.397Z,23.28
2019-05-01T12:45:42.409Z,23.13
2019-05-01T12:46:42.379Z,23.33
2019-05-01T12:47:42.374Z,23.40
2019-05-01T12:48:42.354Z,23.82
2019-05-01T12:49:42.348Z,23.51
2019-05-01T12:50:42.346Z,24.04
2019-05-01T12:51:42.327Z,24.14
2019-05-01T12:52:42.314Z,23.77
2019-05-01T12:53:42.304Z,24.01
2019-05-01T12:54:42.291Z,24.26
2019-05-01T12:55:42.298Z,23.82
2019-05-01T12:56:42.272Z,23.71
2019-05-01T12:57:42.260Z,23.26
2019-05-01T12:58:42.249Z,23.28
2019-05-01T12:59:42.244Z,23.23
2019-05-01T13:00:42.239Z,23.58
2019-05-01T13:01:42.218Z,23.99
2019-05-01T13:02:42.207Z,24.22
2019-05-01T13:03:42.198Z,24.50